Impacts METAR Board INFO
IDs:

KPDX - Portland Intl Arpt, OR, US

Updated at: 2009 UTC 18 Dec 2017
Potential Impact None Slight Moderate High
Time18/08Z 18/09Z 18/10Z 18/11Z 18/12Z 18/13Z 18/14Z 18/15Z 18/16Z 18/17Z 18/18Z 18/19Z 18/20Z
VIS10 10 10 10 10 10 10 10 10 10 10 10 10
CIG29 24 25 27 27 18 16 50 220 70 16 15 15
CoverOVCOVCOVCOVCOVCOVCOVCBKNBKNBKNBKNOVCOVC
FltCatMVFRMVFRMVFRMVFRMVFRMVFRMVFRVFRVFRVFRMVFRMVFRMVFR
WX--------------------------
WDir1701501802002002002202202102102100250
WSpd5 6 9 13 11 4 4 6 7 7 11 0 6
WGst-- -- -- -- -- -- -- -- -- -- -- -- --
Raw hourly METARs
KPDX 180753Z 17005KT 10SM OVC029 08/04 A3014 RMK AO2 SLP204 T00830039 400940050 $
KPDX 180853Z 15006KT 10SM OVC024 09/04 A3013 RMK AO2 SLP201 T00890044 58004 $
KPDX 180953Z 18009KT 10SM OVC025 09/05 A3013 RMK AO2 SLP203 T00890050 $
KPDX 181053Z 20013KT 10SM OVC027 09/05 A3013 RMK AO2 SLP202 T00890050 $
KPDX 181153Z 20011KT 10SM BKN027 OVC070 08/05 A3014 RMK AO2 SLP205 70002 T00830050 10089 20083 53003 $
KPDX 181253Z 20004KT 10SM BKN018 OVC050 09/05 A3015 RMK AO2 SLP207 T00890050 $
KPDX 181353Z 22004KT 10SM BKN016 OVC040 09/06 A3015 RMK AO2 SLP207 T00890056 $
KPDX 181453Z 22006KT 10SM SCT015 BKN050 09/06 A3015 RMK AO2 SLP209 T00890056 51004 $
KPDX 181553Z 21007KT 10SM FEW018 FEW065 SCT120 BKN220 09/06 A3015 RMK AO2 SLP210 T00890056
KPDX 181653Z 21007KT 10SM SCT015 BKN070 BKN120 BKN220 09/06 A3016 RMK AO2 SLP213 T00890061
KPDX 181753Z 21011KT 10SM BKN016 BKN075 BKN110 BKN220 09/06 A3017 RMK AO2 SLP216 T00940061 10094 20083 53007
KPDX 181853Z 00000KT 10SM BKN015 BKN075 OVC110 10/07 A3018 RMK AO2 SLP220 T01000067
KPDX 181953Z 25006KT 10SM OVC015 10/07 A3017 RMK AO2 SLP215 T01000072